createdAt,value
2023-01-29T00:01:13.948Z,0.42
2023-01-29T00:06:16.088Z,0.39
2023-01-29T00:11:18.334Z,0.45
2023-01-29T00:16:21.098Z,0.68
2023-01-29T00:21:23.597Z,0.77
2023-01-29T00:26:26.069Z,0.80
2023-01-29T00:31:28.086Z,0.70
2023-01-29T00:36:29.981Z,0.78
2023-01-29T00:41:51.511Z,0.85
2023-01-29T00:46:53.476Z,0.68
2023-01-29T00:52:13.899Z,0.59
2023-01-29T00:57:15.769Z,0.54
2023-01-29T01:02:36.666Z,0.51
2023-01-29T01:07:39.052Z,0.48
2023-01-29T01:12:40.879Z,0.57
2023-01-29T01:17:42.780Z,0.68
2023-01-29T01:22:44.644Z,0.79
2023-01-29T01:27:46.982Z,0.88
2023-01-29T01:32:49.332Z,0.91
2023-01-29T01:37:51.288Z,0.91
2023-01-29T01:43:00.071Z,0.89
2023-01-29T01:48:07.977Z,0.78
2023-01-29T01:53:12.907Z,0.65
2023-01-29T01:58:41.014Z,0.56
2023-01-29T02:04:16.295Z,0.56
2023-01-29T02:09:52.160Z,0.47
2023-01-29T02:14:54.304Z,0.47
2023-01-29T02:20:11.643Z,0.46
2023-01-29T02:25:39.465Z,0.39
2023-01-29T02:31:15.071Z,0.28
2023-01-29T02:36:35.451Z,0.22
2023-01-29T02:41:41.428Z,0.13
2023-01-29T02:46:51.347Z,0.05
2023-01-29T02:52:09.832Z,-0.03
2023-01-29T02:57:17.847Z,-0.03
2023-01-29T03:02:29.275Z,-0.04
2023-01-29T03:07:44.935Z,-0.05
2023-01-29T03:13:10.785Z,-0.26
2023-01-29T03:18:26.140Z,-0.31
2023-01-29T03:23:52.904Z,-0.35
2023-01-29T03:29:13.433Z,-0.43
2023-01-29T03:34:24.792Z,-0.54
2023-01-29T03:39:29.656Z,-0.55
2023-01-29T03:45:11.455Z,-0.60
2023-01-29T03:50:48.084Z,-0.54
2023-01-29T03:56:34.462Z,-0.60
2023-01-29T04:01:45.271Z,-0.66
2023-01-29T04:06:50.969Z,-0.81
2023-01-29T04:12:05.685Z,-0.97
2023-01-29T04:17:21.632Z,-0.90
2023-01-29T04:22:48.780Z,-0.80
2023-01-29T04:27:57.522Z,-0.84
2023-01-29T04:33:27.099Z,-0.84
2023-01-29T04:38:43.113Z,-0.85
2023-01-29T04:44:13.015Z,-0.78
2023-01-29T04:49:34.514Z,-0.89
2023-01-29T04:55:15.430Z,-0.90
2023-01-29T05:00:40.770Z,-0.87
2023-01-29T05:05:47.323Z,-0.77
2023-01-29T05:10:52.128Z,-0.87
2023-01-29T05:15:53.920Z,-0.91
2023-01-29T05:20:57.508Z,-0.99
2023-01-29T05:25:59.596Z,-0.99
2023-01-29T05:31:01.513Z,-0.88
2023-01-29T05:36:04.105Z,-0.92
2023-01-29T05:41:05.999Z,-1.05
2023-01-29T05:46:07.832Z,-1.02
2023-01-29T05:51:09.718Z,-1.00
2023-01-29T05:56:11.526Z,-1.01
2023-01-29T06:01:19.120Z,-1.10
2023-01-29T06:06:21.074Z,-1.18
2023-01-29T06:11:23.281Z,-1.28
2023-01-29T06:16:25.211Z,-1.36
2023-01-29T06:21:27.189Z,-1.35
2023-01-29T06:26:29.018Z,-1.22
2023-01-29T06:31:39.721Z,-1.17
2023-01-29T06:36:42.110Z,-1.24
2023-01-29T06:41:45.479Z,-1.19
2023-01-29T06:46:47.319Z,-1.08
2023-01-29T06:51:49.140Z,-0.99
2023-01-29T06:56:51.927Z,-0.93
2023-01-29T07:01:53.802Z,-0.86
2023-01-29T07:06:55.667Z,-0.75
2023-01-29T07:11:57.543Z,-0.74
2023-01-29T07:16:59.496Z,-0.81
2023-01-29T07:22:04.191Z,-0.85
2023-01-29T07:27:06.042Z,-0.80
2023-01-29T07:32:08.079Z,-0.75
2023-01-29T07:37:10.143Z,-0.63
2023-01-29T07:42:12.043Z,-0.55
2023-01-29T07:47:15.212Z,-0.44
2023-01-29T07:52:20.804Z,-0.54
2023-01-29T07:57:24.093Z,-0.54
2023-01-29T08:02:25.949Z,-0.46
2023-01-29T08:07:27.803Z,-0.43
2023-01-29T08:12:29.658Z,-0.45
2023-01-29T08:17:31.476Z,-0.34
2023-01-29T08:22:33.321Z,-0.31
2023-01-29T08:27:35.780Z,-0.25
2023-01-29T08:32:37.601Z,-0.13
2023-01-29T08:37:39.447Z,-0.03
2023-01-29T08:42:41.654Z,0.03
2023-01-29T08:47:48.342Z,0.06
2023-01-29T08:52:50.274Z,0.13
2023-01-29T08:57:52.239Z,0.21
2023-01-29T09:02:54.101Z,0.19
2023-01-29T09:07:59.224Z,0.16
2023-01-29T09:13:02.475Z,0.22
2023-01-29T09:18:06.342Z,0.37
2023-01-29T09:23:10.540Z,0.40
2023-01-29T09:28:13.200Z,0.49
2023-01-29T09:33:15.760Z,0.61
2023-01-29T09:38:17.743Z,0.62
2023-01-29T09:43:26.281Z,0.65
2023-01-29T09:48:32.061Z,0.67
2023-01-29T09:53:43.505Z,0.74
2023-01-29T09:58:45.459Z,0.81
2023-01-29T10:03:56.319Z,0.79
2023-01-29T10:09:16.896Z,0.90
2023-01-29T10:14:43.623Z,1.04
2023-01-29T10:20:03.892Z,1.21
2023-01-29T10:25:13.278Z,1.29
2023-01-29T10:30:22.318Z,1.32
2023-01-29T10:35:31.694Z,1.42
2023-01-29T10:40:43.580Z,1.51
2023-01-29T10:46:20.048Z,1.57
2023-01-29T10:51:52.283Z,1.60
2023-01-29T10:57:10.294Z,1.62
2023-01-29T11:02:16.886Z,1.63
2023-01-29T11:07:21.284Z,1.75
2023-01-29T11:12:30.604Z,1.74
2023-01-29T11:17:32.525Z,1.59
2023-01-29T11:22:34.407Z,1.57
2023-01-29T11:27:44.377Z,1.51
2023-01-29T11:32:52.547Z,1.60
2023-01-29T11:38:26.586Z,1.64
2023-01-29T11:43:31.151Z,1.73
2023-01-29T11:48:59.082Z,1.82
2023-01-29T11:54:18.212Z,1.96
2023-01-29T11:59:40.718Z,1.96
2023-01-29T12:04:42.563Z,2.03
2023-01-29T12:09:59.738Z,2.04
2023-01-29T12:15:25.173Z,2.08
2023-01-29T12:20:45.885Z,2.12
2023-01-29T12:26:02.953Z,2.20
2023-01-29T12:31:29.283Z,2.28
2023-01-29T12:36:44.270Z,2.36
2023-01-29T12:41:56.047Z,2.45
2023-01-29T12:47:01.265Z,2.46
2023-01-29T12:52:17.679Z,2.53
2023-01-29T12:57:45.440Z,2.56
2023-01-29T13:02:59.406Z,2.58
2023-01-29T13:08:10.091Z,2.59
2023-01-29T13:13:33.500Z,2.57
2023-01-29T13:18:53.383Z,2.69
2023-01-29T13:24:00.207Z,2.71
2023-01-29T13:29:03.099Z,2.78
2023-01-29T13:34:26.239Z,2.82
2023-01-29T13:39:44.348Z,2.80
2023-01-29T13:44:51.746Z,2.81
2023-01-29T13:49:56.647Z,2.80
2023-01-29T13:55:01.944Z,2.85
2023-01-29T14:00:05.224Z,2.83
2023-01-29T14:05:31.850Z,2.93
2023-01-29T14:10:35.360Z,2.96
2023-01-29T14:15:39.736Z,2.92
2023-01-29T14:20:54.542Z,2.93
2023-01-29T14:25:59.743Z,2.88
2023-01-29T14:31:03.045Z,2.82
2023-01-29T14:36:09.459Z,2.82
2023-01-29T14:41:35.779Z,2.77
2023-01-29T14:46:37.545Z,2.73
2023-01-29T14:51:44.163Z,2.73
2023-01-29T14:56:53.788Z,2.79
2023-01-29T15:01:56.585Z,2.73
2023-01-29T15:07:11.439Z,2.70
2023-01-29T15:12:47.270Z,2.70
2023-01-29T15:18:31.528Z,2.69
2023-01-29T15:23:34.712Z,2.69
2023-01-29T15:28:37.676Z,2.69
2023-01-29T15:33:42.973Z,2.68
2023-01-29T15:38:44.857Z,2.58
2023-01-29T15:43:49.859Z,2.52
2023-01-29T15:48:53.604Z,2.45
2023-01-29T15:53:58.355Z,2.38
2023-01-29T15:59:07.265Z,2.32
2023-01-29T16:04:17.983Z,2.39
2023-01-29T16:09:26.321Z,2.35
2023-01-29T16:14:30.116Z,2.25
2023-01-29T16:19:32.213Z,2.25
2023-01-29T16:24:37.172Z,2.19
2023-01-29T16:29:39.441Z,2.20
2023-01-29T16:34:44.794Z,2.26
2023-01-29T16:39:49.686Z,2.38
2023-01-29T16:45:28.212Z,2.42
2023-01-29T16:50:46.253Z,2.44
2023-01-29T16:56:05.173Z,2.47
2023-01-29T17:01:11.629Z,2.46
2023-01-29T17:06:21.112Z,2.46
2023-01-29T17:11:38.646Z,2.50
2023-01-29T17:16:51.413Z,2.41
2023-01-29T17:21:53.649Z,2.38
2023-01-29T17:26:55.474Z,2.44
2023-01-29T17:32:00.361Z,2.38
2023-01-29T17:37:02.499Z,2.43
2023-01-29T17:42:04.586Z,2.42
2023-01-29T17:47:08.078Z,2.40
2023-01-29T17:52:10.724Z,2.29
2023-01-29T17:57:15.071Z,2.25
2023-01-29T18:02:29.099Z,2.22
2023-01-29T18:07:31.799Z,2.15
2023-01-29T18:12:34.106Z,2.08
2023-01-29T18:17:36.034Z,2.01
2023-01-29T18:22:37.919Z,1.94
2023-01-29T18:27:39.919Z,1.96
2023-01-29T18:32:41.820Z,1.86
2023-01-29T18:37:44.093Z,1.83
2023-01-29T18:42:47.155Z,1.73
2023-01-29T18:47:49.435Z,1.72
2023-01-29T18:52:51.436Z,1.66
2023-01-29T18:58:26.870Z,1.59
2023-01-29T19:03:16.361Z,1.54
2023-01-29T19:08:18.633Z,1.54
2023-01-29T19:13:20.477Z,1.59
2023-01-29T19:18:22.393Z,1.56
2023-01-29T19:23:24.283Z,1.59
2023-01-29T19:28:26.146Z,1.64
2023-01-29T19:33:28.605Z,1.60
2023-01-29T19:38:33.525Z,1.61
2023-01-29T19:43:35.577Z,1.52
2023-01-29T19:48:37.402Z,1.45
2023-01-29T19:53:43.831Z,1.45
2023-01-29T19:58:46.021Z,1.44
2023-01-29T20:03:49.389Z,1.47
2023-01-29T20:08:51.960Z,1.45
2023-01-29T20:13:54.555Z,1.34
2023-01-29T20:19:13.679Z,1.27
2023-01-29T20:24:16.825Z,1.07
2023-01-29T20:29:18.837Z,1.06
2023-01-29T20:34:20.692Z,0.98
2023-01-29T20:39:22.654Z,0.89
2023-01-29T20:44:25.207Z,0.88
2023-01-29T20:49:28.432Z,0.79
2023-01-29T20:54:33.218Z,0.72
2023-01-29T20:59:35.338Z,0.75
2023-01-29T21:04:37.149Z,0.65
2023-01-29T21:09:38.977Z,0.59
2023-01-29T21:14:40.787Z,0.54
2023-01-29T21:19:44.097Z,0.51
2023-01-29T21:24:45.974Z,0.39
2023-01-29T21:29:48.618Z,0.35
2023-01-29T21:34:52.652Z,0.29
2023-01-29T21:39:54.649Z,0.35
2023-01-29T21:44:56.703Z,0.32
2023-01-29T21:49:58.511Z,0.40
2023-01-29T21:55:00.341Z,0.37
2023-01-29T22:00:03.230Z,0.41
2023-01-29T22:05:18.242Z,0.43
2023-01-29T22:10:21.689Z,0.38
2023-01-29T22:15:24.206Z,0.25
2023-01-29T22:20:30.262Z,0.24
2023-01-29T22:25:33.551Z,0.23
2023-01-29T22:30:35.589Z,0.20
2023-01-29T22:35:38.228Z,0.26
2023-01-29T22:40:40.307Z,0.29
2023-01-29T22:45:42.122Z,0.32
2023-01-29T22:50:53.234Z,0.33
2023-01-29T22:55:55.867Z,0.34
2023-01-29T23:00:57.786Z,0.34
2023-01-29T23:05:59.707Z,0.37
2023-01-29T23:11:15.559Z,0.40
2023-01-29T23:16:18.977Z,0.37
2023-01-29T23:21:22.801Z,0.40
2023-01-29T23:26:43.892Z,0.45
2023-01-29T23:31:45.865Z,0.54
2023-01-29T23:36:47.724Z,0.60
2023-01-29T23:41:49.601Z,0.55
2023-01-29T23:46:51.447Z,0.59
2023-01-29T23:51:53.620Z,0.63
2023-01-29T23:56:55.833Z,0.68
